^^
Saratoga-Weather Station Historical Data
Daily Summary for July 24, 2020 Units:  Metric    English   Both
Daily Weekly Monthly Yearly Custom
  High: Low: Average:
Temperature: 13.4 °C 10.2 °C 12.3 °C
Dew Point: 12.5 °C 8.9 °C 10.9 °C
Humidity: 95% 83% 91%
Wind Speed: 12.9km/h 0km/h 2.2km/h
Wind Gust: 16.1km/h - -
Wind- - WSW
Pressure: 1015.9 hPa 1014.2 hPa -
Precipitation: 0.0 mm    
Historical Graphs
 
 
Tabular Data for July 24, 2020
Time Temperature Dew Point Pressure Wind Wind Speed Wind Gust Humidity Rainfall Rate (Hourly) solar
00:00 13.4 °C 12.5 °C 1014.2 hPa West 3.2 km/h 3.2 km/h 94% 0.0 mm 0 W/m2
00:05 13.2 °C 12.1 °C 1014.2 hPa NNE 1.4 km/h 3.2 km/h 93% 0.0 mm 0 W/m2
00:10 13.1 °C 12.2 °C 1014.2 hPa Calm   6.4 km/h 94% 0.0 mm 0 W/m2
00:15 13 °C 12.1 °C 1014.2 hPa Calm     94% 0.0 mm 0 W/m2
00:20 12.9 °C 12 °C 1014.6 hPa West 1.4 km/h 4.8 km/h 94% 0.0 mm 0 W/m2
00:25 12.8 °C 11.9 °C 1014.6 hPa West 3.2 km/h 3.2 km/h 94% 0.0 mm 0 W/m2
00:30 12.8 °C 11.9 °C 1014.6 hPa WNW 1.4 km/h 3.2 km/h 94% 0.0 mm 0 W/m2
00:35 12.8 °C 12 °C 1014.6 hPa WNW 1.4 km/h 3.2 km/h 95% 0.0 mm 0 W/m2
00:40 12.8 °C 12 °C 1014.6 hPa West 1.4 km/h 1.6 km/h 95% 0.0 mm 0 W/m2
00:45 12.8 °C 12 °C 1014.6 hPa West 9.7 km/h 9.7 km/h 95% 0.0 mm 0 W/m2
00:50 12.9 °C 12.1 °C 1014.6 hPa WNW 3.2 km/h 4.8 km/h 95% 0.0 mm 0 W/m2
00:55 12.9 °C 12 °C 1014.6 hPa WNW 4.7 km/h 6.4 km/h 94% 0.0 mm 0 W/m2
01:00 12.9 °C 12 °C 1014.6 hPa West 1.4 km/h 6.4 km/h 94% 0.0 mm 0 W/m2
01:05 12.9 °C 12 °C 1014.6 hPa West 4.7 km/h 6.4 km/h 94% 0.0 mm 0 W/m2
01:10 12.9 °C 12 °C 1014.6 hPa West 9.7 km/h 9.7 km/h 94% 0.0 mm 0 W/m2
01:15 12.8 °C 11.9 °C 1014.6 hPa West 3.2 km/h 3.2 km/h 94% 0.0 mm 0 W/m2
01:20 12.8 °C 11.9 °C 1014.6 hPa WSW 3.2 km/h 6.4 km/h 94% 0.0 mm 0 W/m2
01:25 12.7 °C 11.8 °C 1014.6 hPa Calm   3.2 km/h 94% 0.0 mm 0 W/m2
01:30 12.6 °C 11.7 °C 1014.6 hPa Calm   1.6 km/h 94% 0.0 mm 0 W/m2
01:35 12.6 °C 11.7 °C 1014.6 hPa Calm   3.2 km/h 94% 0.0 mm 0 W/m2
01:40 12.5 °C 11.6 °C 1014.6 hPa WNW 3.2 km/h 6.4 km/h 94% 0.0 mm 0 W/m2
01:45 12.4 °C 11.5 °C 1014.6 hPa WSW 1.4 km/h 3.2 km/h 94% 0.0 mm 0 W/m2
01:50 12.4 °C 11.5 °C 1014.6 hPa Calm   1.6 km/h 94% 0.0 mm 0 W/m2
01:55 12.4 °C 11.5 °C 1014.6 hPa Calm     94% 0.0 mm 0 W/m2
02:00 12.4 °C 11.5 °C 1014.6 hPa SSW 1.4 km/h 6.4 km/h 94% 0.0 mm 0 W/m2
02:05 12.4 °C 11.6 °C 1014.6 hPa Calm   3.2 km/h 95% 0.0 mm 0 W/m2
02:10 12.4 °C 11.5 °C 1014.6 hPa Calm   6.4 km/h 94% 0.0 mm 0 W/m2
02:15 12.4 °C 11.6 °C 1014.6 hPa Calm     95% 0.0 mm 0 W/m2
02:20 12.4 °C 11.5 °C 1014.6 hPa WNW 4.7 km/h 9.7 km/h 94% 0.0 mm 0 W/m2
02:25 12.4 °C 11.6 °C 1014.6 hPa North 1.4 km/h 3.2 km/h 95% 0.0 mm 0 W/m2
02:30 12.5 °C 11.7 °C 1014.6 hPa Calm   8 km/h 95% 0.0 mm 0 W/m2
02:35 12.5 °C 11.7 °C 1014.6 hPa Calm   4.8 km/h 95% 0.0 mm 0 W/m2
02:40 12.5 °C 11.7 °C 1014.6 hPa NNW 1.4 km/h 6.4 km/h 95% 0.0 mm 0 W/m2
02:45 12.6 °C 11.7 °C 1014.6 hPa Calm   4.8 km/h 94% 0.0 mm 0 W/m2
02:50 12.6 °C 11.7 °C 1014.6 hPa WNW 3.2 km/h 4.8 km/h 94% 0.0 mm 0 W/m2
02:55 12.6 °C 11.7 °C 1014.6 hPa WNW 1.4 km/h 4.8 km/h 94% 0.0 mm 0 W/m2
03:00 12.7 °C 11.8 °C 1014.6 hPa Calm   4.8 km/h 94% 0.0 mm 0 W/m2
03:05 12.7 °C 11.8 °C 1014.6 hPa NW 1.4 km/h 8 km/h 94% 0.0 mm 0 W/m2
03:10 12.7 °C 11.8 °C 1014.6 hPa North 1.4 km/h 3.2 km/h 94% 0.0 mm 0 W/m2
03:15 12.8 °C 11.9 °C 1014.6 hPa NE 1.4 km/h 8 km/h 94% 0.0 mm 0 W/m2
03:20 12.8 °C 11.9 °C 1014.6 hPa Calm   1.6 km/h 94% 0.0 mm 0 W/m2
03:26 12.8 °C 11.9 °C 1014.6 hPa ESE 9.7 km/h 9.7 km/h 94% 0.0 mm 0 W/m2
03:31 12.7 °C 11.8 °C 1014.6 hPa WSW 4.7 km/h 6.4 km/h 94% 0.0 mm 0 W/m2
03:36 12.7 °C 11.8 °C 1014.9 hPa Calm   4.8 km/h 94% 0.0 mm 0 W/m2
03:41 12.7 °C 11.8 °C 1014.6 hPa Calm   3.2 km/h 94% 0.0 mm 0 W/m2
03:46 12.7 °C 11.8 °C 1014.9 hPa South 1.4 km/h 9.7 km/h 94% 0.0 mm 0 W/m2
03:51 12.7 °C 11.8 °C 1014.9 hPa Calm     94% 0.0 mm 0 W/m2
03:56 12.7 °C 11.8 °C 1014.9 hPa WNW 4.7 km/h 11.3 km/h 94% 0.0 mm 0 W/m2
04:01 12.8 °C 11.9 °C 1014.9 hPa Calm   3.2 km/h 94% 0.0 mm 0 W/m2
04:06 12.8 °C 11.9 °C 1014.9 hPa Calm   4.8 km/h 94% 0.0 mm 0 W/m2
04:11 12.9 °C 11.8 °C 1014.9 hPa Calm   3.2 km/h 93% 0.0 mm 0 W/m2
04:16 12.9 °C 11.8 °C 1014.9 hPa Calm   1.6 km/h 93% 0.0 mm 0 W/m2
04:21 12.9 °C 11.8 °C 1014.9 hPa West 1.4 km/h 3.2 km/h 93% 0.0 mm 0 W/m2
04:26 12.9 °C 11.8 °C 1014.9 hPa West 1.4 km/h 4.8 km/h 93% 0.0 mm 0 W/m2
04:31 12.9 °C 11.8 °C 1014.9 hPa WNW 7.9 km/h 9.7 km/h 93% 0.0 mm 0 W/m2
04:36 12.9 °C 11.8 °C 1014.9 hPa West 4.7 km/h 6.4 km/h 93% 0.0 mm 0 W/m2
04:41 13 °C 11.9 °C 1014.9 hPa WNW 3.2 km/h 12.9 km/h 93% 0.0 mm 0 W/m2
04:46 13 °C 11.9 °C 1014.9 hPa WNW 4.7 km/h 9.7 km/h 93% 0.0 mm 0 W/m2
04:51 13 °C 11.7 °C 1014.9 hPa WSW 1.4 km/h 4.8 km/h 92% 0.0 mm 0 W/m2
04:56 12.9 °C 11.6 °C 1014.9 hPa NNW 3.2 km/h 4.8 km/h 92% 0.0 mm 0 W/m2
05:01 12.9 °C 11.6 °C 1014.9 hPa Calm   4.8 km/h 92% 0.0 mm 0 W/m2
05:06 12.8 °C 11.5 °C 1014.9 hPa West 3.2 km/h 4.8 km/h 92% 0.0 mm 0 W/m2
05:11 12.7 °C 11.4 °C 1014.9 hPa NNW 4.7 km/h 6.4 km/h 92% 0.0 mm 0 W/m2
05:16 12.7 °C 11.4 °C 1014.9 hPa West 3.2 km/h 4.8 km/h 92% 0.0 mm 0 W/m2
05:21 12.6 °C 11.3 °C 1014.9 hPa Calm   6.4 km/h 92% 0.0 mm 0 W/m2
05:26 12.6 °C 11.3 °C 1014.9 hPa Calm   1.6 km/h 92% 0.0 mm 0 W/m2
05:31 12.4 °C 11.3 °C 1014.9 hPa NW 3.2 km/h 6.4 km/h 93% 0.0 mm 0 W/m2
05:36 12.3 °C 11.2 °C 1014.9 hPa Calm   4.8 km/h 93% 0.0 mm 0 W/m2
05:41 12.3 °C 11.2 °C 1014.9 hPa NW 3.2 km/h 6.4 km/h 93% 0.0 mm 0 W/m2
05:46 12.3 °C 11.2 °C 1014.9 hPa NW 4.7 km/h 11.3 km/h 93% 0.0 mm 0 W/m2
05:51 12.3 °C 11.2 °C 1014.9 hPa Calm   6.4 km/h 93% 0.0 mm 0 W/m2
05:56 12.4 °C 11.3 °C 1014.9 hPa NNW 1.4 km/h 9.7 km/h 93% 0.0 mm 0 W/m2
06:01 12.4 °C 11.3 °C 1014.9 hPa NNW 1.4 km/h 3.2 km/h 93% 0.0 mm 0 W/m2
06:06 12.4 °C 11.3 °C 1014.9 hPa Calm   4.8 km/h 93% 0.0 mm 0 W/m2
06:11 12.5 °C 11.4 °C 1014.9 hPa SW 7.9 km/h 12.9 km/h 93% 0.0 mm 0 W/m2
06:16 12.6 °C 11.3 °C 1014.9 hPa NNW 3.2 km/h 4.8 km/h 92% 0.0 mm 0 W/m2
06:21 12.6 °C 11.3 °C 1015.2 hPa NW 1.4 km/h 12.9 km/h 92% 0.0 mm 0 W/m2
06:26 12.6 °C 11.3 °C 1015.2 hPa NW 7.9 km/h 12.9 km/h 92% 0.0 mm 0 W/m2
06:31 12.6 °C 11.3 °C 1015.2 hPa NW 1.4 km/h 4.8 km/h 92% 0.0 mm 0 W/m2
06:36 12.6 °C 11.2 °C 1014.9 hPa West 12.9 km/h 12.9 km/h 91% 0.0 mm 0 W/m2
06:41 12.6 °C 11.2 °C 1014.9 hPa NW 1.4 km/h 6.4 km/h 91% 0.0 mm 0 W/m2
06:46 12.6 °C 11 °C 1014.9 hPa WNW 3.2 km/h 4.8 km/h 90% 0.0 mm 0 W/m2
06:51 12.6 °C 10.8 °C 1014.9 hPa WSW 3.2 km/h 16.1 km/h 89% 0.0 mm 0 W/m2
06:56 12.5 °C 10.6 °C 1015.2 hPa WNW 6.4 km/h 12.9 km/h 88% 0.0 mm 0 W/m2
07:01 12.4 °C 10.5 °C 1014.9 hPa West 1.4 km/h 16.1 km/h 88% 0.0 mm 0 W/m2
07:06 12.3 °C 10.4 °C 1015.2 hPa NW 6.4 km/h 8 km/h 88% 0.0 mm 0 W/m2
07:11 12.2 °C 10.1 °C 1015.2 hPa NW 4.7 km/h 9.7 km/h 87% 0.0 mm 0 W/m2
07:17 12.2 °C 10.3 °C 1015.2 hPa Calm   1.6 km/h 88% 0.0 mm 0 W/m2
07:22 12.1 °C 10.2 °C 1015.2 hPa Calm   9.7 km/h 88% 0.0 mm 0 W/m2
07:27 11.9 °C 10 °C 1015.2 hPa Calm   6.4 km/h 88% 0.0 mm 0 W/m2
07:32 11.8 °C 9.9 °C 1015.2 hPa West 3.2 km/h 4.8 km/h 88% 0.0 mm 0 W/m2
07:37 11.8 °C 9.9 °C 1015.2 hPa NW 3.2 km/h 6.4 km/h 88% 0.0 mm 0 W/m2
07:42 11.7 °C 9.8 °C 1015.2 hPa Calm   6.4 km/h 88% 0.0 mm 0 W/m2
07:47 11.6 °C 9.7 °C 1015.2 hPa WNW 1.4 km/h 11.3 km/h 88% 0.0 mm 0 W/m2
07:52 11.5 °C 9.6 °C 1015.2 hPa WNW 3.2 km/h 6.4 km/h 88% 0.0 mm 0 W/m2
07:57 11.4 °C 9.5 °C 1015.2 hPa NW 1.4 km/h 11.3 km/h 88% 0.0 mm 0 W/m2
08:02 11.3 °C 9.4 °C 1015.6 hPa NW 1.4 km/h 4.8 km/h 88% 0.0 mm 0 W/m2
08:07 11.3 °C 9.4 °C 1015.6 hPa Calm   6.4 km/h 88% 0.0 mm 0 W/m2
08:12 11.2 °C 9.3 °C 1015.6 hPa NNE 1.4 km/h 3.2 km/h 88% 0.0 mm 0 W/m2
08:17 11.2 °C 9.3 °C 1015.6 hPa NW 1.4 km/h 3.2 km/h 88% 0.0 mm 5 W/m2
08:22 11.1 °C 9.4 °C 1015.6 hPa NNE 3.2 km/h 3.2 km/h 89% 0.0 mm 5 W/m2
08:27 11 °C 9.3 °C 1015.6 hPa Calm   3.2 km/h 89% 0.0 mm 7 W/m2
08:32 10.8 °C 9.1 °C 1015.9 hPa Calm   3.2 km/h 89% 0.0 mm 11 W/m2
08:37 10.7 °C 9.1 °C 1015.9 hPa Calm     90% 0.0 mm 12 W/m2
08:42 10.6 °C 9 °C 1015.9 hPa West 1.4 km/h 3.2 km/h 90% 0.0 mm 16 W/m2
08:47 10.5 °C 9.1 °C 1015.9 hPa Calm     91% 0.0 mm 16 W/m2
08:52 10.4 °C 9 °C 1015.9 hPa Calm   4.8 km/h 91% 0.0 mm 16 W/m2
08:57 10.3 °C 8.9 °C 1015.9 hPa West 1.4 km/h 3.2 km/h 91% 0.0 mm 16 W/m2
09:02 10.2 °C 9 °C 1015.9 hPa Calm   4.8 km/h 92% 0.0 mm 23 W/m2
09:07 10.2 °C 9 °C 1015.9 hPa Calm   1.6 km/h 92% 0.0 mm 26 W/m2
09:12 10.3 °C 9.1 °C 1015.9 hPa Calm   6.4 km/h 92% 0.0 mm 33 W/m2
09:17 10.4 °C 9.2 °C 1015.9 hPa Calm   1.6 km/h 92% 0.0 mm 28 W/m2
09:22 10.6 °C 9.4 °C 1015.9 hPa NNW 3.2 km/h 8 km/h 92% 0.0 mm 28 W/m2
09:27 10.7 °C 9.3 °C 1015.9 hPa NE 1.4 km/h 3.2 km/h 91% 0.0 mm 47 W/m2
09:32 10.8 °C 9.4 °C 1015.9 hPa SE 1.4 km/h 6.4 km/h 91% 0.0 mm 63 W/m2
09:37 11 °C 9.6 °C 1015.9 hPa Calm   3.2 km/h 91% 0.0 mm 63 W/m2
09:42 11.1 °C 9.7 °C 1015.9 hPa Calm   6.4 km/h 91% 0.0 mm 26 W/m2
09:47 11.2 °C 9.6 °C 1015.9 hPa Calm   3.2 km/h 90% 0.0 mm 62 W/m2
09:52 11.3 °C 9.7 °C 1015.9 hPa Calm   8 km/h 90% 0.0 mm 86 W/m2
09:57 11.4 °C 9.8 °C 1015.9 hPa NNW 3.2 km/h 4.8 km/h 90% 0.0 mm 105 W/m2
10:02 11.6 °C 10 °C 1015.9 hPa North 3.2 km/h 8 km/h 90% 0.0 mm 230 W/m2
10:07 11.8 °C 10 °C 1015.9 hPa Calm   6.4 km/h 89% 0.0 mm 95 W/m2
10:12 12 °C 10.2 °C 1015.9 hPa NW 3.2 km/h 3.2 km/h 89% 0.0 mm 95 W/m2
10:17 12.1 °C 10.2 °C 1015.9 hPa Calm   8 km/h 88% 0.0 mm 76 W/m2
10:22 12.2 °C 10.1 °C 1015.9 hPa ENE 7.9 km/h 12.9 km/h 87% 0.0 mm 67 W/m2
10:27 12.3 °C 10.2 °C 1015.9 hPa North 3.2 km/h 4.8 km/h 87% 0.0 mm 70 W/m2
10:32 12.3 °C 10 °C 1015.9 hPa NE 1.4 km/h 12.9 km/h 86% 0.0 mm 104 W/m2
10:37 12.4 °C 10.1 °C 1015.9 hPa NE 4.7 km/h 6.4 km/h 86% 0.0 mm 107 W/m2
10:42 12.4 °C 10.1 °C 1015.9 hPa East 8 km/h 8 km/h 86% 0.0 mm 102 W/m2
10:47 12.6 °C 10.1 °C 1015.9 hPa ENE 1.4 km/h 6.4 km/h 85% 0.0 mm 118 W/m2
10:52 12.6 °C 10.1 °C 1015.9 hPa NW 3.2 km/h 3.2 km/h 85% 0.0 mm 130 W/m2
10:57 12.7 °C 10.2 °C 1015.9 hPa NE 3.2 km/h 6.4 km/h 85% 0.0 mm 137 W/m2
11:02 12.8 °C 10.2 °C 1015.9 hPa West 6.4 km/h 6.4 km/h 84% 0.0 mm 153 W/m2
11:07 12.8 °C 10.2 °C 1015.9 hPa NNE 1.4 km/h 3.2 km/h 84% 0.0 mm 118 W/m2
11:12 12.9 °C 10.3 °C 1015.9 hPa West 9.7 km/h 9.7 km/h 84% 0.0 mm 128 W/m2
11:17 12.9 °C 10.3 °C 1015.9 hPa NE 4.7 km/h 6.4 km/h 84% 0.0 mm 105 W/m2
11:22 12.9 °C 10.1 °C 1015.9 hPa Calm   8 km/h 83% 0.0 mm 114 W/m2
Juneau County Weather
Compliments of Weather Underground - 4 mb